sensor_id;sensor_type;location;lat;lon;timestamp;P1;durP1;ratioP1;P2;durP2;ratioP2
6755;SDS011;3415;51.148;7.014;2022-09-09T08:33:53;1.67;;;1.50;;
6755;SDS011;3415;51.148;7.014;2022-09-09T08:36:22;7.10;;;1.50;;
6755;SDS011;3415;51.148;7.014;2022-09-09T08:38:51;1.47;;;1.07;;
6755;SDS011;3415;51.148;7.014;2022-09-09T08:41:25;1.73;;;1.20;;
6755;SDS011;3415;51.148;7.014;2022-09-09T08:44:10;1.37;;;1.00;;
6755;SDS011;3415;51.148;7.014;2022-09-09T08:46:46;6.33;;;1.00;;
6755;SDS011;3415;51.148;7.014;2022-09-09T08:49:27;3.23;;;1.23;;
6755;SDS011;3415;51.148;7.014;2022-09-09T08:54:40;1.73;;;0.90;;
6755;SDS011;3415;51.148;7.014;2022-09-09T08:57:08;1.00;;;0.90;;
6755;SDS011;3415;51.148;7.014;2022-09-09T08:59:40;2.60;;;1.00;;
6755;SDS011;3415;51.148;7.014;2022-09-09T09:02:12;7.07;;;1.40;;
6755;SDS011;3415;51.148;7.014;2022-09-09T09:04:50;7.43;;;1.70;;
6755;SDS011;3415;51.148;7.014;2022-09-09T09:07:29;0.70;;;0.70;;
6755;SDS011;3415;51.148;7.014;2022-09-09T09:10:08;2.20;;;1.13;;
6755;SDS011;3415;51.148;7.014;2022-09-09T09:12:42;3.20;;;0.90;;
6755;SDS011;3415;51.148;7.014;2022-09-09T09:15:14;1.80;;;0.90;;
6755;SDS011;3415;51.148;7.014;2022-09-09T09:17:46;1.93;;;1.10;;
6755;SDS011;3415;51.148;7.014;2022-09-09T09:20:14;1.37;;;1.27;;
6755;SDS011;3415;51.148;7.014;2022-09-09T09:22:45;2.70;;;1.30;;
6755;SDS011;3415;51.148;7.014;2022-09-09T09:25:16;1.80;;;0.90;;
6755;SDS011;3415;51.148;7.014;2022-09-09T09:27:46;1.30;;;0.83;;
6755;SDS011;3415;51.148;7.014;2022-09-09T09:30:20;2.53;;;0.90;;
6755;SDS011;3415;51.148;7.014;2022-09-09T09:32:51;1.00;;;0.90;;
6755;SDS011;3415;51.148;7.014;2022-09-09T09:35:20;7.30;;;0.90;;
6755;SDS011;3415;51.148;7.014;2022-09-09T09:37:47;0.80;;;0.80;;
6755;SDS011;3415;51.148;7.014;2022-09-09T09:40:15;1.33;;;1.10;;
6755;SDS011;3415;51.148;7.014;2022-09-09T09:42:50;1.13;;;0.80;;
6755;SDS011;3415;51.148;7.014;2022-09-09T09:45:23;2.30;;;0.80;;
6755;SDS011;3415;51.148;7.014;2022-09-09T09:47:59;2.50;;;0.80;;
6755;SDS011;3415;51.148;7.014;2022-09-09T09:50:28;0.90;;;0.80;;
6755;SDS011;3415;51.148;7.014;2022-09-09T09:52:57;1.50;;;1.07;;
6755;SDS011;3415;51.148;7.014;2022-09-09T09:55:26;1.50;;;0.97;;
6755;SDS011;3415;51.148;7.014;2022-09-09T09:58:00;1.70;;;1.10;;
6755;SDS011;3415;51.148;7.014;2022-09-09T10:00:28;4.20;;;0.93;;
6755;SDS011;3415;51.148;7.014;2022-09-09T10:02:55;0.90;;;0.70;;
6755;SDS011;3415;51.148;7.014;2022-09-09T10:05:23;1.47;;;1.27;;
6755;SDS011;3415;51.148;7.014;2022-09-09T10:08:01;2.70;;;1.33;;
6755;SDS011;3415;51.148;7.014;2022-09-09T10:10:34;2.53;;;0.97;;
6755;SDS011;3415;51.148;7.014;2022-09-09T10:13:15;1.07;;;0.80;;
6755;SDS011;3415;51.148;7.014;2022-09-09T10:15:48;0.80;;;0.80;;
6755;SDS011;3415;51.148;7.014;2022-09-09T10:18:32;1.17;;;0.80;;
6755;SDS011;3415;51.148;7.014;2022-09-09T10:21:10;1.87;;;1.60;;
6755;SDS011;3415;51.148;7.014;2022-09-09T10:23:52;0.97;;;0.97;;
6755;SDS011;3415;51.148;7.014;2022-09-09T10:26:42;0.90;;;0.90;;
6755;SDS011;3415;51.148;7.014;2022-09-09T10:29:26;4.03;;;1.27;;
6755;SDS011;3415;51.148;7.014;2022-09-09T10:32:07;0.80;;;0.80;;
6755;SDS011;3415;51.148;7.014;2022-09-09T10:34:54;1.90;;;0.90;;
6755;SDS011;3415;51.148;7.014;2022-09-09T10:37:29;1.97;;;0.83;;
6755;SDS011;3415;51.148;7.014;2022-09-09T10:40:14;2.30;;;1.10;;
6755;SDS011;3415;51.148;7.014;2022-09-09T10:42:55;2.93;;;1.00;;
6755;SDS011;3415;51.148;7.014;2022-09-09T10:45:29;0.70;;;0.70;;
6755;SDS011;3415;51.148;7.014;2022-09-09T10:48:09;1.20;;;1.00;;
6755;SDS011;3415;51.148;7.014;2022-09-09T10:50:52;2.93;;;1.07;;
6755;SDS011;3415;51.148;7.014;2022-09-09T10:53:28;0.80;;;0.80;;
6755;SDS011;3415;51.148;7.014;2022-09-09T10:56:12;1.10;;;1.00;;
6755;SDS011;3415;51.148;7.014;2022-09-09T10:58:43;1.23;;;1.10;;
6755;SDS011;3415;51.148;7.014;2022-09-09T11:01:15;0.90;;;0.90;;
6755;SDS011;3415;51.148;7.014;2022-09-09T11:03:47;3.30;;;1.30;;
6755;SDS011;3415;51.148;7.014;2022-09-09T11:06:19;1.20;;;1.00;;
6755;SDS011;3415;51.148;7.014;2022-09-09T11:08:50;1.07;;;0.80;;
6755;SDS011;3415;51.148;7.014;2022-09-09T11:11:20;2.70;;;1.17;;
6755;SDS011;3415;51.148;7.014;2022-09-09T11:13:53;5.07;;;1.00;;
6755;SDS011;3415;51.148;7.014;2022-09-09T11:16:25;2.90;;;1.13;;
6755;SDS011;3415;51.148;7.014;2022-09-09T11:18:55;0.97;;;0.97;;
6755;SDS011;3415;51.148;7.014;2022-09-09T11:21:27;2.10;;;0.73;;
6755;SDS011;3415;51.148;7.014;2022-09-09T11:23:59;1.47;;;0.83;;
6755;SDS011;3415;51.148;7.014;2022-09-09T11:26:30;5.67;;;1.20;;
6755;SDS011;3415;51.148;7.014;2022-09-09T11:29:16;1.73;;;0.97;;
6755;SDS011;3415;51.148;7.014;2022-09-09T11:32:00;1.93;;;1.03;;
6755;SDS011;3415;51.148;7.014;2022-09-09T11:34:41;1.43;;;1.17;;
6755;SDS011;3415;51.148;7.014;2022-09-09T11:37:22;1.30;;;1.20;;
6755;SDS011;3415;51.148;7.014;2022-09-09T11:40:07;0.90;;;0.90;;
6755;SDS011;3415;51.148;7.014;2022-09-09T11:42:42;2.37;;;0.87;;
6755;SDS011;3415;51.148;7.014;2022-09-09T11:45:10;4.70;;;1.10;;
6755;SDS011;3415;51.148;7.014;2022-09-09T11:47:51;2.60;;;0.70;;
6755;SDS011;3415;51.148;7.014;2022-09-09T11:50:27;1.00;;;0.90;;
6755;SDS011;3415;51.148;7.014;2022-09-09T11:58:53;2.87;;;0.90;;
6755;SDS011;3415;51.148;7.014;2022-09-09T12:01:27;1.33;;;0.80;;
6755;SDS011;3415;51.148;7.014;2022-09-09T12:04:12;1.47;;;1.00;;
6755;SDS011;3415;51.148;7.014;2022-09-09T12:06:59;5.00;;;0.87;;
6755;SDS011;3415;51.148;7.014;2022-09-09T12:09:29;0.80;;;0.70;;
6755;SDS011;3415;51.148;7.014;2022-09-09T12:12:07;1.80;;;0.90;;
6755;SDS011;3415;51.148;7.014;2022-09-09T12:18:01;3.50;;;0.70;;
6755;SDS011;3415;51.148;7.014;2022-09-09T12:20:34;3.90;;;0.70;;
6755;SDS011;3415;51.148;7.014;2022-09-09T12:23:14;1.00;;;0.70;;
6755;SDS011;3415;51.148;7.014;2022-09-09T12:25:53;0.80;;;0.80;;
6755;SDS011;3415;51.148;7.014;2022-09-09T12:28:30;2.80;;;1.00;;
6755;SDS011;3415;51.148;7.014;2022-09-09T12:31:08;1.10;;;1.00;;
6755;SDS011;3415;51.148;7.014;2022-09-09T12:33:42;1.33;;;0.80;;
6755;SDS011;3415;51.148;7.014;2022-09-09T12:36:12;1.37;;;0.80;;
6755;SDS011;3415;51.148;7.014;2022-09-09T12:38:42;1.13;;;0.87;;
6755;SDS011;3415;51.148;7.014;2022-09-09T12:41:17;1.13;;;0.73;;
6755;SDS011;3415;51.148;7.014;2022-09-09T12:43:48;1.23;;;0.80;;
6755;SDS011;3415;51.148;7.014;2022-09-09T12:46:18;1.60;;;0.80;;
6755;SDS011;3415;51.148;7.014;2022-09-09T12:48:52;1.00;;;0.90;;
6755;SDS011;3415;51.148;7.014;2022-09-09T12:51:21;5.83;;;1.00;;
6755;SDS011;3415;51.148;7.014;2022-09-09T12:53:53;2.20;;;0.80;;
6755;SDS011;3415;51.148;7.014;2022-09-09T12:56:21;2.73;;;1.07;;
6755;SDS011;3415;51.148;7.014;2022-09-09T12:58:53;1.87;;;1.00;;
6755;SDS011;3415;51.148;7.014;2022-09-09T13:01:22;1.53;;;1.10;;
6755;SDS011;3415;51.148;7.014;2022-09-09T13:03:50;2.67;;;1.13;;
6755;SDS011;3415;51.148;7.014;2022-09-09T13:06:19;1.10;;;1.00;;
6755;SDS011;3415;51.148;7.014;2022-09-09T13:08:48;2.83;;;1.10;;
6755;SDS011;3415;51.148;7.014;2022-09-09T13:11:16;2.57;;;1.07;;
6755;SDS011;3415;51.148;7.014;2022-09-09T13:13:50;2.77;;;1.30;;
6755;SDS011;3415;51.148;7.014;2022-09-09T13:16:20;1.83;;;1.13;;
6755;SDS011;3415;51.148;7.014;2022-09-09T13:18:49;1.20;;;0.87;;
6755;SDS011;3415;51.148;7.014;2022-09-09T13:21:16;1.53;;;1.13;;
6755;SDS011;3415;51.148;7.014;2022-09-09T13:23:48;2.40;;;1.20;;
6755;SDS011;3415;51.148;7.014;2022-09-09T13:26:20;4.30;;;1.20;;
6755;SDS011;3415;51.148;7.014;2022-09-09T13:28:49;0.90;;;0.90;;
6755;SDS011;3415;51.148;7.014;2022-09-09T13:31:21;1.80;;;1.20;;
6755;SDS011;3415;51.148;7.014;2022-09-09T13:33:49;2.00;;;1.10;;
6755;SDS011;3415;51.148;7.014;2022-09-09T13:36:26;1.40;;;1.10;;
6755;SDS011;3415;51.148;7.014;2022-09-09T13:38:55;0.93;;;0.73;;
6755;SDS011;3415;51.148;7.014;2022-09-09T13:41:25;5.20;;;1.20;;
6755;SDS011;3415;51.148;7.014;2022-09-09T13:43:56;6.90;;;1.30;;
6755;SDS011;3415;51.148;7.014;2022-09-09T13:46:28;1.50;;;1.07;;
6755;SDS011;3415;51.148;7.014;2022-09-09T13:48:59;10.63;;;1.30;;
6755;SDS011;3415;51.148;7.014;2022-09-09T13:51:35;0.87;;;0.87;;
6755;SDS011;3415;51.148;7.014;2022-09-09T13:54:04;2.03;;;1.03;;
6755;SDS011;3415;51.148;7.014;2022-09-09T13:56:32;2.40;;;1.20;;
6755;SDS011;3415;51.148;7.014;2022-09-09T13:59:00;1.33;;;1.23;;
6755;SDS011;3415;51.148;7.014;2022-09-09T14:01:28;1.87;;;1.10;;
6755;SDS011;3415;51.148;7.014;2022-09-09T14:03:56;6.33;;;1.20;;
6755;SDS011;3415;51.148;7.014;2022-09-09T14:06:23;2.43;;;0.97;;
6755;SDS011;3415;51.148;7.014;2022-09-09T14:08:51;3.10;;;1.90;;
6755;SDS011;3415;51.148;7.014;2022-09-09T14:11:19;1.47;;;1.20;;
6755;SDS011;3415;51.148;7.014;2022-09-09T14:13:47;4.20;;;1.73;;
6755;SDS011;3415;51.148;7.014;2022-09-09T14:16:14;1.53;;;1.33;;
6755;SDS011;3415;51.148;7.014;2022-09-09T14:18:43;2.30;;;1.67;;
6755;SDS011;3415;51.148;7.014;2022-09-09T14:21:10;1.60;;;1.30;;
6755;SDS011;3415;51.148;7.014;2022-09-09T14:23:38;2.73;;;1.00;;
6755;SDS011;3415;51.148;7.014;2022-09-09T14:26:05;2.17;;;1.00;;
6755;SDS011;3415;51.148;7.014;2022-09-09T14:28:32;1.87;;;1.00;;
6755;SDS011;3415;51.148;7.014;2022-09-09T14:30:59;0.80;;;0.80;;
6755;SDS011;3415;51.148;7.014;2022-09-09T14:33:27;4.10;;;1.47;;
6755;SDS011;3415;51.148;7.014;2022-09-09T14:35:56;5.93;;;1.30;;
6755;SDS011;3415;51.148;7.014;2022-09-09T14:38:24;3.93;;;1.20;;
6755;SDS011;3415;51.148;7.014;2022-09-09T14:40:51;4.40;;;1.60;;
6755;SDS011;3415;51.148;7.014;2022-09-09T14:43:18;2.43;;;1.40;;
6755;SDS011;3415;51.148;7.014;2022-09-09T14:45:45;5.00;;;1.40;;
6755;SDS011;3415;51.148;7.014;2022-09-09T14:48:13;5.00;;;1.43;;
6755;SDS011;3415;51.148;7.014;2022-09-09T14:50:40;3.60;;;1.10;;
6755;SDS011;3415;51.148;7.014;2022-09-09T14:53:09;2.87;;;1.23;;
6755;SDS011;3415;51.148;7.014;2022-09-09T14:55:36;1.30;;;1.20;;
6755;SDS011;3415;51.148;7.014;2022-09-09T14:58:03;1.57;;;0.97;;
6755;SDS011;3415;51.148;7.014;2022-09-09T15:00:31;1.00;;;0.90;;
6755;SDS011;3415;51.148;7.014;2022-09-09T15:02:58;1.10;;;1.00;;
6755;SDS011;3415;51.148;7.014;2022-09-09T15:05:25;1.13;;;1.00;;
6755;SDS011;3415;51.148;7.014;2022-09-09T15:07:53;2.97;;;1.20;;
6755;SDS011;3415;51.148;7.014;2022-09-09T15:10:21;2.67;;;1.23;;
6755;SDS011;3415;51.148;7.014;2022-09-09T15:12:48;4.83;;;1.33;;
6755;SDS011;3415;51.148;7.014;2022-09-09T15:15:14;4.10;;;1.17;;
6755;SDS011;3415;51.148;7.014;2022-09-09T15:17:42;1.07;;;1.07;;
6755;SDS011;3415;51.148;7.014;2022-09-09T15:20:09;2.00;;;1.07;;
6755;SDS011;3415;51.148;7.014;2022-09-09T15:22:36;1.37;;;1.27;;
6755;SDS011;3415;51.148;7.014;2022-09-09T15:25:03;5.30;;;1.10;;
6755;SDS011;3415;51.148;7.014;2022-09-09T15:27:34;2.50;;;1.20;;
6755;SDS011;3415;51.148;7.014;2022-09-09T15:30:04;1.10;;;0.93;;
6755;SDS011;3415;51.148;7.014;2022-09-09T15:32:31;3.10;;;1.10;;
6755;SDS011;3415;51.148;7.014;2022-09-09T15:34:59;3.73;;;1.10;;
6755;SDS011;3415;51.148;7.014;2022-09-09T15:37:26;3.60;;;1.00;;
6755;SDS011;3415;51.148;7.014;2022-09-09T15:39:53;2.90;;;1.03;;
6755;SDS011;3415;51.148;7.014;2022-09-09T15:42:20;1.57;;;1.07;;
6755;SDS011;3415;51.148;7.014;2022-09-09T15:44:48;1.17;;;1.07;;
6755;SDS011;3415;51.148;7.014;2022-09-09T15:47:15;2.23;;;1.23;;
6755;SDS011;3415;51.148;7.014;2022-09-09T15:49:42;1.17;;;0.87;;
6755;SDS011;3415;51.148;7.014;2022-09-09T15:52:09;1.87;;;0.90;;
6755;SDS011;3415;51.148;7.014;2022-09-09T15:54:36;1.20;;;1.10;;
6755;SDS011;3415;51.148;7.014;2022-09-09T15:57:05;3.03;;;1.20;;
6755;SDS011;3415;51.148;7.014;2022-09-09T15:59:33;1.10;;;1.00;;
6755;SDS011;3415;51.148;7.014;2022-09-09T16:02:01;2.67;;;1.20;;
6755;SDS011;3415;51.148;7.014;2022-09-09T16:04:30;5.23;;;1.00;;
6755;SDS011;3415;51.148;7.014;2022-09-09T16:06:58;3.23;;;1.30;;
6755;SDS011;3415;51.148;7.014;2022-09-09T16:09:27;3.00;;;1.20;;
6755;SDS011;3415;51.148;7.014;2022-09-09T16:11:55;1.23;;;0.90;;
6755;SDS011;3415;51.148;7.014;2022-09-09T16:14:23;1.90;;;1.10;;
6755;SDS011;3415;51.148;7.014;2022-09-09T16:16:50;1.00;;;1.00;;
6755;SDS011;3415;51.148;7.014;2022-09-09T16:19:19;1.63;;;1.40;;
6755;SDS011;3415;51.148;7.014;2022-09-09T16:21:47;1.27;;;1.17;;
6755;SDS011;3415;51.148;7.014;2022-09-09T16:24:15;1.70;;;1.20;;
6755;SDS011;3415;51.148;7.014;2022-09-09T16:26:45;1.40;;;1.30;;
6755;SDS011;3415;51.148;7.014;2022-09-09T16:29:14;3.33;;;1.00;;
6755;SDS011;3415;51.148;7.014;2022-09-09T16:31:42;1.97;;;1.30;;
6755;SDS011;3415;51.148;7.014;2022-09-09T16:34:10;1.60;;;1.50;;
6755;SDS011;3415;51.148;7.014;2022-09-09T21:29:46;2.10;;;1.90;;
6755;SDS011;3415;51.148;7.014;2022-09-09T21:32:14;3.97;;;1.80;;
6755;SDS011;3415;51.148;7.014;2022-09-09T21:34:41;1.77;;;1.60;;
6755;SDS011;3415;51.148;7.014;2022-09-09T21:37:09;2.70;;;1.63;;
6755;SDS011;3415;51.148;7.014;2022-09-09T21:39:36;4.87;;;1.60;;
6755;SDS011;3415;51.148;7.014;2022-09-09T21:42:03;3.63;;;1.60;;
6755;SDS011;3415;51.148;7.014;2022-09-09T21:44:30;3.70;;;1.70;;
6755;SDS011;3415;51.148;7.014;2022-09-09T21:46:59;1.83;;;1.60;;
6755;SDS011;3415;51.148;7.014;2022-09-09T21:49:25;4.07;;;1.70;;
6755;SDS011;3415;51.148;7.014;2022-09-09T21:51:52;8.33;;;1.87;;
6755;SDS011;3415;51.148;7.014;2022-09-09T21:54:22;3.23;;;2.20;;
6755;SDS011;3415;51.148;7.014;2022-09-09T21:56:49;2.83;;;1.90;;
6755;SDS011;3415;51.148;7.014;2022-09-09T21:59:16;1.53;;;1.43;;
6755;SDS011;3415;51.148;7.014;2022-09-09T22:01:43;2.00;;;1.70;;
6755;SDS011;3415;51.148;7.014;2022-09-09T22:04:12;1.70;;;1.60;;
6755;SDS011;3415;51.148;7.014;2022-09-09T22:06:39;3.53;;;1.80;;
6755;SDS011;3415;51.148;7.014;2022-09-09T22:09:06;3.90;;;1.60;;
6755;SDS011;3415;51.148;7.014;2022-09-09T22:11:33;2.43;;;1.83;;
6755;SDS011;3415;51.148;7.014;2022-09-09T22:14:00;2.10;;;1.57;;
6755;SDS011;3415;51.148;7.014;2022-09-09T22:16:27;1.93;;;1.43;;
6755;SDS011;3415;51.148;7.014;2022-09-09T22:18:56;2.43;;;1.57;;
6755;SDS011;3415;51.148;7.014;2022-09-09T22:21:26;4.80;;;1.57;;
6755;SDS011;3415;51.148;7.014;2022-09-09T22:23:55;1.63;;;1.53;;
6755;SDS011;3415;51.148;7.014;2022-09-09T22:26:23;2.30;;;1.60;;
6755;SDS011;3415;51.148;7.014;2022-09-09T22:28:51;1.43;;;1.33;;
6755;SDS011;3415;51.148;7.014;2022-09-09T22:31:18;2.53;;;1.70;;
6755;SDS011;3415;51.148;7.014;2022-09-09T22:33:46;2.17;;;1.53;;
6755;SDS011;3415;51.148;7.014;2022-09-09T22:36:14;3.90;;;1.70;;
6755;SDS011;3415;51.148;7.014;2022-09-09T22:38:42;1.53;;;1.33;;
6755;SDS011;3415;51.148;7.014;2022-09-09T22:41:09;4.37;;;1.80;;
6755;SDS011;3415;51.148;7.014;2022-09-09T22:43:36;1.60;;;1.50;;
6755;SDS011;3415;51.148;7.014;2022-09-09T22:46:03;2.17;;;1.97;;
6755;SDS011;3415;51.148;7.014;2022-09-09T22:48:30;2.10;;;1.47;;
6755;SDS011;3415;51.148;7.014;2022-09-09T22:50:59;3.53;;;1.97;;
6755;SDS011;3415;51.148;7.014;2022-09-09T22:53:28;2.17;;;1.80;;
6755;SDS011;3415;51.148;7.014;2022-09-09T22:55:58;3.23;;;1.43;;
6755;SDS011;3415;51.148;7.014;2022-09-09T22:58:27;2.70;;;1.70;;
6755;SDS011;3415;51.148;7.014;2022-09-09T23:00:55;3.37;;;1.70;;
6755;SDS011;3415;51.148;7.014;2022-09-09T23:03:23;1.67;;;1.43;;
6755;SDS011;3415;51.148;7.014;2022-09-09T23:05:53;4.50;;;1.80;;
6755;SDS011;3415;51.148;7.014;2022-09-09T23:08:22;2.03;;;1.90;;
6755;SDS011;3415;51.148;7.014;2022-09-09T23:10:50;7.17;;;1.80;;
6755;SDS011;3415;51.148;7.014;2022-09-09T23:13:21;2.73;;;1.77;;
6755;SDS011;3415;51.148;7.014;2022-09-09T23:15:48;3.33;;;2.13;;
6755;SDS011;3415;51.148;7.014;2022-09-09T23:18:15;5.30;;;1.97;;
6755;SDS011;3415;51.148;7.014;2022-09-09T23:20:42;2.07;;;1.60;;
